sensor_id;sensor_type;location;lat;lon;timestamp;P1;durP1;ratioP1;P2;durP2;ratioP2
68126;SDS011;54931;52.098;21.006;2023-02-18T00:01:38;8.60;;;2.20;;
68126;SDS011;54931;52.098;21.006;2023-02-18T00:04:06;8.50;;;2.30;;
68126;SDS011;54931;52.098;21.006;2023-02-18T00:06:36;10.20;;;2.10;;
68126;SDS011;54931;52.098;21.006;2023-02-18T00:09:05;6.60;;;2.30;;
68126;SDS011;54931;52.098;21.006;2023-02-18T00:11:36;8.20;;;2.70;;
68126;SDS011;54931;52.098;21.006;2023-02-18T00:14:09;7.00;;;2.00;;
68126;SDS011;54931;52.098;21.006;2023-02-18T00:16:39;7.10;;;2.50;;
68126;SDS011;54931;52.098;21.006;2023-02-18T00:19:12;8.50;;;2.10;;
68126;SDS011;54931;52.098;21.006;2023-02-18T00:21:42;6.80;;;2.30;;
68126;SDS011;54931;52.098;21.006;2023-02-18T00:24:13;8.20;;;2.40;;
68126;SDS011;54931;52.098;21.006;2023-02-18T00:26:43;4.70;;;2.00;;
68126;SDS011;54931;52.098;21.006;2023-02-18T00:29:12;8.40;;;2.20;;
68126;SDS011;54931;52.098;21.006;2023-02-18T00:31:39;7.70;;;2.80;;
68126;SDS011;54931;52.098;21.006;2023-02-18T00:34:09;7.10;;;2.00;;
68126;SDS011;54931;52.098;21.006;2023-02-18T00:36:38;10.70;;;2.10;;
68126;SDS011;54931;52.098;21.006;2023-02-18T00:39:08;12.00;;;2.70;;
68126;SDS011;54931;52.098;21.006;2023-02-18T00:41:39;10.60;;;1.90;;
68126;SDS011;54931;52.098;21.006;2023-02-18T00:44:08;8.20;;;2.20;;
68126;SDS011;54931;52.098;21.006;2023-02-18T00:46:37;12.30;;;2.00;;
68126;SDS011;54931;52.098;21.006;2023-02-18T00:49:05;7.40;;;2.20;;
68126;SDS011;54931;52.098;21.006;2023-02-18T00:51:34;5.00;;;1.90;;
68126;SDS011;54931;52.098;21.006;2023-02-18T00:54:02;7.00;;;2.40;;
68126;SDS011;54931;52.098;21.006;2023-02-18T00:56:30;8.60;;;2.00;;
68126;SDS011;54931;52.098;21.006;2023-02-18T00:58:58;6.80;;;1.90;;
68126;SDS011;54931;52.098;21.006;2023-02-18T01:01:27;9.30;;;1.90;;
68126;SDS011;54931;52.098;21.006;2023-02-18T01:03:55;6.40;;;2.40;;
68126;SDS011;54931;52.098;21.006;2023-02-18T01:06:22;6.10;;;1.90;;
68126;SDS011;54931;52.098;21.006;2023-02-18T01:08:50;11.60;;;2.50;;
68126;SDS011;54931;52.098;21.006;2023-02-18T01:11:18;5.50;;;1.70;;
68126;SDS011;54931;52.098;21.006;2023-02-18T01:13:47;8.50;;;2.10;;
68126;SDS011;54931;52.098;21.006;2023-02-18T01:16:15;8.20;;;2.40;;
68126;SDS011;54931;52.098;21.006;2023-02-18T01:18:43;7.70;;;2.10;;
68126;SDS011;54931;52.098;21.006;2023-02-18T01:21:11;13.30;;;2.40;;
68126;SDS011;54931;52.098;21.006;2023-02-18T01:23:40;10.10;;;2.30;;
68126;SDS011;54931;52.098;21.006;2023-02-18T01:26:08;6.50;;;2.10;;
68126;SDS011;54931;52.098;21.006;2023-02-18T01:28:38;10.90;;;2.50;;
68126;SDS011;54931;52.098;21.006;2023-02-18T01:31:08;9.00;;;2.00;;
68126;SDS011;54931;52.098;21.006;2023-02-18T01:33:38;9.70;;;2.40;;
68126;SDS011;54931;52.098;21.006;2023-02-18T01:36:07;5.00;;;2.20;;
68126;SDS011;54931;52.098;21.006;2023-02-18T01:38:36;7.10;;;2.30;;
68126;SDS011;54931;52.098;21.006;2023-02-18T01:41:04;6.90;;;2.00;;
68126;SDS011;54931;52.098;21.006;2023-02-18T01:43:34;11.00;;;2.10;;
68126;SDS011;54931;52.098;21.006;2023-02-18T01:46:07;8.60;;;2.20;;
68126;SDS011;54931;52.098;21.006;2023-02-18T01:48:42;10.60;;;2.00;;
68126;SDS011;54931;52.098;21.006;2023-02-18T01:51:21;10.30;;;2.50;;
68126;SDS011;54931;52.098;21.006;2023-02-18T01:56:39;7.70;;;2.10;;
68126;SDS011;54931;52.098;21.006;2023-02-18T01:59:15;9.40;;;2.00;;
68126;SDS011;54931;52.098;21.006;2023-02-18T02:01:48;12.70;;;2.60;;
68126;SDS011;54931;52.098;21.006;2023-02-18T02:04:16;8.30;;;2.10;;
68126;SDS011;54931;52.098;21.006;2023-02-18T02:06:45;8.20;;;2.20;;
68126;SDS011;54931;52.098;21.006;2023-02-18T02:09:16;10.50;;;1.90;;
68126;SDS011;54931;52.098;21.006;2023-02-18T02:14:51;11.10;;;1.90;;
68126;SDS011;54931;52.098;21.006;2023-02-18T02:18:00;6.40;;;2.00;;
68126;SDS011;54931;52.098;21.006;2023-02-18T02:21:00;6.00;;;1.80;;
68126;SDS011;54931;52.098;21.006;2023-02-18T02:40:35;6.90;;;1.70;;
68126;SDS011;54931;52.098;21.006;2023-02-18T02:43:24;9.20;;;2.10;;
68126;SDS011;54931;52.098;21.006;2023-02-18T02:46:51;12.90;;;2.70;;
68126;SDS011;54931;52.098;21.006;2023-02-18T02:51:56;7.60;;;2.20;;
68126;SDS011;54931;52.098;21.006;2023-02-18T02:54:38;9.60;;;2.50;;
68126;SDS011;54931;52.098;21.006;2023-02-18T02:59:48;9.50;;;2.20;;
68126;SDS011;54931;52.098;21.006;2023-02-18T03:11:33;8.20;;;2.00;;
68126;SDS011;54931;52.098;21.006;2023-02-18T03:14:15;11.80;;;2.30;;
68126;SDS011;54931;52.098;21.006;2023-02-18T03:16:58;7.90;;;2.10;;
68126;SDS011;54931;52.098;21.006;2023-02-18T03:19:58;13.50;;;2.80;;
68126;SDS011;54931;52.098;21.006;2023-02-18T03:22:52;10.40;;;2.10;;
68126;SDS011;54931;52.098;21.006;2023-02-18T03:25:23;9.10;;;1.90;;
68126;SDS011;54931;52.098;21.006;2023-02-18T03:28:13;9.10;;;2.10;;
68126;SDS011;54931;52.098;21.006;2023-02-18T03:30:50;11.40;;;2.10;;
68126;SDS011;54931;52.098;21.006;2023-02-18T03:33:33;9.90;;;1.50;;
68126;SDS011;54931;52.098;21.006;2023-02-18T03:36:04;9.50;;;1.90;;
68126;SDS011;54931;52.098;21.006;2023-02-18T03:38:41;7.50;;;2.10;;
68126;SDS011;54931;52.098;21.006;2023-02-18T03:41:15;8.60;;;2.30;;
68126;SDS011;54931;52.098;21.006;2023-02-18T03:43:51;9.30;;;2.50;;
68126;SDS011;54931;52.098;21.006;2023-02-18T03:46:20;14.90;;;2.60;;
68126;SDS011;54931;52.098;21.006;2023-02-18T03:48:48;10.80;;;2.20;;
68126;SDS011;54931;52.098;21.006;2023-02-18T03:51:15;10.20;;;2.30;;
68126;SDS011;54931;52.098;21.006;2023-02-18T03:53:43;12.70;;;2.30;;
68126;SDS011;54931;52.098;21.006;2023-02-18T03:56:13;9.00;;;2.20;;
68126;SDS011;54931;52.098;21.006;2023-02-18T03:58:41;8.50;;;2.30;;
68126;SDS011;54931;52.098;21.006;2023-02-18T04:01:09;13.50;;;2.50;;
68126;SDS011;54931;52.098;21.006;2023-02-18T04:03:37;13.80;;;2.30;;
68126;SDS011;54931;52.098;21.006;2023-02-18T04:06:05;12.90;;;2.60;;
68126;SDS011;54931;52.098;21.006;2023-02-18T04:08:33;10.60;;;2.20;;
68126;SDS011;54931;52.098;21.006;2023-02-18T04:11:02;10.60;;;2.50;;
68126;SDS011;54931;52.098;21.006;2023-02-18T04:13:32;9.50;;;2.10;;
68126;SDS011;54931;52.098;21.006;2023-02-18T04:15:59;8.80;;;2.00;;
68126;SDS011;54931;52.098;21.006;2023-02-18T04:18:27;14.00;;;2.60;;
68126;SDS011;54931;52.098;21.006;2023-02-18T04:20:55;12.40;;;2.50;;
68126;SDS011;54931;52.098;21.006;2023-02-18T04:23:23;10.10;;;2.60;;
68126;SDS011;54931;52.098;21.006;2023-02-18T04:25:51;8.90;;;2.30;;
68126;SDS011;54931;52.098;21.006;2023-02-18T04:28:19;14.50;;;2.50;;
68126;SDS011;54931;52.098;21.006;2023-02-18T04:30:47;8.80;;;2.50;;
68126;SDS011;54931;52.098;21.006;2023-02-18T04:33:16;12.70;;;2.40;;
68126;SDS011;54931;52.098;21.006;2023-02-18T04:35:44;14.90;;;2.00;;
68126;SDS011;54931;52.098;21.006;2023-02-18T04:38:12;9.20;;;2.20;;
68126;SDS011;54931;52.098;21.006;2023-02-18T04:40:41;11.30;;;2.60;;
68126;SDS011;54931;52.098;21.006;2023-02-18T04:43:09;16.30;;;2.70;;
68126;SDS011;54931;52.098;21.006;2023-02-18T04:45:37;9.30;;;2.40;;
68126;SDS011;54931;52.098;21.006;2023-02-18T04:48:05;11.10;;;2.40;;
68126;SDS011;54931;52.098;21.006;2023-02-18T04:50:33;10.00;;;2.40;;
68126;SDS011;54931;52.098;21.006;2023-02-18T04:53:01;6.70;;;2.10;;
68126;SDS011;54931;52.098;21.006;2023-02-18T04:55:29;12.10;;;2.00;;
68126;SDS011;54931;52.098;21.006;2023-02-18T04:57:57;9.00;;;2.40;;
68126;SDS011;54931;52.098;21.006;2023-02-18T05:00:25;11.60;;;2.30;;
68126;SDS011;54931;52.098;21.006;2023-02-18T05:02:55;8.60;;;2.20;;
68126;SDS011;54931;52.098;21.006;2023-02-18T05:05:23;10.90;;;2.50;;
68126;SDS011;54931;52.098;21.006;2023-02-18T05:07:51;8.20;;;2.00;;
68126;SDS011;54931;52.098;21.006;2023-02-18T05:10:19;9.60;;;2.00;;
68126;SDS011;54931;52.098;21.006;2023-02-18T05:12:48;12.40;;;3.00;;
68126;SDS011;54931;52.098;21.006;2023-02-18T05:15:16;8.60;;;2.20;;
68126;SDS011;54931;52.098;21.006;2023-02-18T05:17:44;8.20;;;2.10;;
68126;SDS011;54931;52.098;21.006;2023-02-18T05:20:13;9.70;;;2.60;;
68126;SDS011;54931;52.098;21.006;2023-02-18T05:22:40;10.00;;;2.50;;
68126;SDS011;54931;52.098;21.006;2023-02-18T05:25:09;10.10;;;2.20;;
68126;SDS011;54931;52.098;21.006;2023-02-18T05:27:37;9.10;;;2.20;;
68126;SDS011;54931;52.098;21.006;2023-02-18T05:30:06;9.40;;;2.00;;
68126;SDS011;54931;52.098;21.006;2023-02-18T05:32:34;11.10;;;2.30;;
68126;SDS011;54931;52.098;21.006;2023-02-18T05:35:02;11.90;;;2.10;;
68126;SDS011;54931;52.098;21.006;2023-02-18T05:37:31;9.60;;;2.00;;
68126;SDS011;54931;52.098;21.006;2023-02-18T05:39:59;7.10;;;2.00;;
68126;SDS011;54931;52.098;21.006;2023-02-18T05:42:27;11.40;;;2.10;;
68126;SDS011;54931;52.098;21.006;2023-02-18T05:44:55;10.80;;;2.10;;
68126;SDS011;54931;52.098;21.006;2023-02-18T05:47:22;9.00;;;3.00;;
68126;SDS011;54931;52.098;21.006;2023-02-18T05:49:50;10.90;;;2.40;;
68126;SDS011;54931;52.098;21.006;2023-02-18T05:52:18;10.00;;;2.80;;
68126;SDS011;54931;52.098;21.006;2023-02-18T05:54:46;8.20;;;2.60;;
68126;SDS011;54931;52.098;21.006;2023-02-18T05:57:14;11.30;;;3.00;;
68126;SDS011;54931;52.098;21.006;2023-02-18T05:59:42;9.10;;;2.90;;
68126;SDS011;54931;52.098;21.006;2023-02-18T06:02:10;9.10;;;2.90;;
68126;SDS011;54931;52.098;21.006;2023-02-18T06:04:37;10.90;;;2.50;;
68126;SDS011;54931;52.098;21.006;2023-02-18T06:07:07;9.30;;;2.30;;
68126;SDS011;54931;52.098;21.006;2023-02-18T06:09:35;7.70;;;2.30;;
68126;SDS011;54931;52.098;21.006;2023-02-18T06:12:03;10.10;;;2.40;;
68126;SDS011;54931;52.098;21.006;2023-02-18T06:14:32;8.70;;;2.10;;
68126;SDS011;54931;52.098;21.006;2023-02-18T06:17:01;14.80;;;2.30;;
68126;SDS011;54931;52.098;21.006;2023-02-18T06:19:29;16.00;;;2.20;;
68126;SDS011;54931;52.098;21.006;2023-02-18T06:21:57;9.60;;;2.00;;
68126;SDS011;54931;52.098;21.006;2023-02-18T06:24:25;9.30;;;2.00;;
68126;SDS011;54931;52.098;21.006;2023-02-18T06:26:53;11.60;;;2.50;;
68126;SDS011;54931;52.098;21.006;2023-02-18T06:29:21;10.50;;;2.40;;
68126;SDS011;54931;52.098;21.006;2023-02-18T06:31:49;9.60;;;2.30;;
68126;SDS011;54931;52.098;21.006;2023-02-18T06:34:18;12.90;;;2.10;;
68126;SDS011;54931;52.098;21.006;2023-02-18T06:36:46;9.80;;;2.10;;
68126;SDS011;54931;52.098;21.006;2023-02-18T06:39:14;11.90;;;2.00;;
68126;SDS011;54931;52.098;21.006;2023-02-18T06:41:43;10.80;;;2.00;;
68126;SDS011;54931;52.098;21.006;2023-02-18T06:44:12;10.90;;;2.60;;
68126;SDS011;54931;52.098;21.006;2023-02-18T06:46:44;12.60;;;2.50;;
68126;SDS011;54931;52.098;21.006;2023-02-18T06:49:12;10.10;;;2.60;;
68126;SDS011;54931;52.098;21.006;2023-02-18T06:51:41;12.50;;;2.40;;
68126;SDS011;54931;52.098;21.006;2023-02-18T06:54:09;9.80;;;2.00;;
68126;SDS011;54931;52.098;21.006;2023-02-18T06:56:37;9.10;;;2.20;;
68126;SDS011;54931;52.098;21.006;2023-02-18T06:59:05;11.10;;;2.50;;
68126;SDS011;54931;52.098;21.006;2023-02-18T07:01:34;5.30;;;1.60;;
68126;SDS011;54931;52.098;21.006;2023-02-18T07:04:03;12.40;;;2.50;;
68126;SDS011;54931;52.098;21.006;2023-02-18T07:06:31;15.60;;;2.70;;
68126;SDS011;54931;52.098;21.006;2023-02-18T07:08:59;12.20;;;3.00;;
68126;SDS011;54931;52.098;21.006;2023-02-18T07:11:28;9.40;;;2.50;;
68126;SDS011;54931;52.098;21.006;2023-02-18T07:13:56;9.20;;;2.40;;
68126;SDS011;54931;52.098;21.006;2023-02-18T07:16:24;10.60;;;2.60;;
68126;SDS011;54931;52.098;21.006;2023-02-18T07:18:52;11.20;;;2.40;;
68126;SDS011;54931;52.098;21.006;2023-02-18T07:21:20;12.50;;;2.90;;
68126;SDS011;54931;52.098;21.006;2023-02-18T07:23:48;9.70;;;2.50;;
68126;SDS011;54931;52.098;21.006;2023-02-18T07:26:16;13.20;;;3.20;;
68126;SDS011;54931;52.098;21.006;2023-02-18T07:28:44;14.40;;;2.30;;
68126;SDS011;54931;52.098;21.006;2023-02-18T07:31:11;9.70;;;2.40;;
68126;SDS011;54931;52.098;21.006;2023-02-18T07:33:40;14.40;;;2.20;;
68126;SDS011;54931;52.098;21.006;2023-02-18T07:36:08;11.40;;;2.10;;
68126;SDS011;54931;52.098;21.006;2023-02-18T07:38:38;11.00;;;2.40;;
68126;SDS011;54931;52.098;21.006;2023-02-18T07:41:05;12.00;;;2.70;;
68126;SDS011;54931;52.098;21.006;2023-02-18T07:43:33;12.20;;;3.10;;
68126;SDS011;54931;52.098;21.006;2023-02-18T07:46:05;11.00;;;2.40;;
68126;SDS011;54931;52.098;21.006;2023-02-18T07:48:33;11.60;;;2.90;;
68126;SDS011;54931;52.098;21.006;2023-02-18T07:51:05;12.90;;;2.70;;
68126;SDS011;54931;52.098;21.006;2023-02-18T07:53:36;8.70;;;2.30;;
68126;SDS011;54931;52.098;21.006;2023-02-18T07:56:06;12.00;;;2.60;;
68126;SDS011;54931;52.098;21.006;2023-02-18T07:58:37;7.20;;;2.00;;
68126;SDS011;54931;52.098;21.006;2023-02-18T08:01:10;8.40;;;2.10;;
68126;SDS011;54931;52.098;21.006;2023-02-18T08:03:42;11.00;;;2.40;;
68126;SDS011;54931;52.098;21.006;2023-02-18T08:06:20;14.50;;;2.50;;
68126;SDS011;54931;52.098;21.006;2023-02-18T08:08:52;12.00;;;3.00;;
68126;SDS011;54931;52.098;21.006;2023-02-18T08:11:21;10.70;;;2.10;;
68126;SDS011;54931;52.098;21.006;2023-02-18T08:13:49;11.60;;;2.70;;
68126;SDS011;54931;52.098;21.006;2023-02-18T08:16:18;10.80;;;2.60;;
68126;SDS011;54931;52.098;21.006;2023-02-18T08:18:48;12.40;;;3.40;;
68126;SDS011;54931;52.098;21.006;2023-02-18T08:21:18;11.50;;;2.90;;
68126;SDS011;54931;52.098;21.006;2023-02-18T08:23:48;10.70;;;3.10;;
68126;SDS011;54931;52.098;21.006;2023-02-18T08:26:17;8.10;;;2.70;;
68126;SDS011;54931;52.098;21.006;2023-02-18T08:28:47;6.50;;;1.90;;
68126;SDS011;54931;52.098;21.006;2023-02-18T08:31:21;7.30;;;2.20;;
68126;SDS011;54931;52.098;21.006;2023-02-18T08:33:53;9.60;;;2.40;;
68126;SDS011;54931;52.098;21.006;2023-02-18T08:36:22;11.10;;;2.10;;
68126;SDS011;54931;52.098;21.006;2023-02-18T08:38:51;9.30;;;2.20;;
68126;SDS011;54931;52.098;21.006;2023-02-18T08:41:19;9.20;;;2.30;;
68126;SDS011;54931;52.098;21.006;2023-02-18T08:43:48;13.40;;;2.70;;
68126;SDS011;54931;52.098;21.006;2023-02-18T08:46:16;10.50;;;2.30;;
68126;SDS011;54931;52.098;21.006;2023-02-18T08:48:44;10.40;;;2.70;;
68126;SDS011;54931;52.098;21.006;2023-02-18T08:51:19;13.40;;;3.20;;
68126;SDS011;54931;52.098;21.006;2023-02-18T08:53:48;10.40;;;2.60;;
68126;SDS011;54931;52.098;21.006;2023-02-18T08:56:16;12.70;;;2.70;;
68126;SDS011;54931;52.098;21.006;2023-02-18T08:58:44;12.40;;;2.50;;
68126;SDS011;54931;52.098;21.006;2023-02-18T09:01:13;11.30;;;2.70;;
68126;SDS011;54931;52.098;21.006;2023-02-18T09:03:41;10.40;;;2.70;;
68126;SDS011;54931;52.098;21.006;2023-02-18T09:06:10;13.00;;;2.90;;
68126;SDS011;54931;52.098;21.006;2023-02-18T09:08:38;7.20;;;2.30;;
68126;SDS011;54931;52.098;21.006;2023-02-18T09:11:06;9.80;;;2.10;;
68126;SDS011;54931;52.098;21.006;2023-02-18T09:13:34;11.60;;;2.30;;
68126;SDS011;54931;52.098;21.006;2023-02-18T09:16:09;14.00;;;2.40;;
68126;SDS011;54931;52.098;21.006;2023-02-18T09:18:40;11.40;;;2.20;;
68126;SDS011;54931;52.098;21.006;2023-02-18T09:21:10;11.10;;;3.00;;
68126;SDS011;54931;52.098;21.006;2023-02-18T09:23:39;10.60;;;2.30;;
68126;SDS011;54931;52.098;21.006;2023-02-18T09:26:10;8.50;;;2.50;;
68126;SDS011;54931;52.098;21.006;2023-02-18T09:28:40;10.80;;;2.70;;
68126;SDS011;54931;52.098;21.006;2023-02-18T09:31:14;9.10;;;2.50;;
68126;SDS011;54931;52.098;21.006;2023-02-18T09:33:47;14.20;;;3.10;;
68126;SDS011;54931;52.098;21.006;2023-02-18T09:36:18;9.20;;;2.50;;
68126;SDS011;54931;52.098;21.006;2023-02-18T09:38:50;11.40;;;2.70;;
68126;SDS011;54931;52.098;21.006;2023-02-18T09:46:42;11.60;;;2.90;;
68126;SDS011;54931;52.098;21.006;2023-02-18T09:49:20;12.20;;;2.80;;
68126;SDS011;54931;52.098;21.006;2023-02-18T09:52:05;11.80;;;2.80;;
68126;SDS011;54931;52.098;21.006;2023-02-18T09:54:39;11.40;;;2.70;;
68126;SDS011;54931;52.098;21.006;2023-02-18T09:57:25;10.80;;;2.50;;
68126;SDS011;54931;52.098;21.006;2023-02-18T10:00:12;10.10;;;2.40;;
68126;SDS011;54931;52.098;21.006;2023-02-18T10:02:57;11.10;;;2.40;;
68126;SDS011;54931;52.098;21.006;2023-02-18T10:05:30;14.90;;;3.00;;
68126;SDS011;54931;52.098;21.006;2023-02-18T10:08:03;8.50;;;2.40;;
68126;SDS011;54931;52.098;21.006;2023-02-18T10:10:39;16.40;;;2.70;;
68126;SDS011;54931;52.098;21.006;2023-02-18T10:13:19;8.80;;;3.00;;
68126;SDS011;54931;52.098;21.006;2023-02-18T10:15:52;8.80;;;2.50;;
68126;SDS011;54931;52.098;21.006;2023-02-18T10:18:22;12.50;;;2.80;;
68126;SDS011;54931;52.098;21.006;2023-02-18T10:21:20;8.90;;;2.50;;
68126;SDS011;54931;52.098;21.006;2023-02-18T10:24:03;17.50;;;3.40;;
68126;SDS011;54931;52.098;21.006;2023-02-18T10:26:39;10.90;;;2.80;;
68126;SDS011;54931;52.098;21.006;2023-02-18T10:29:14;15.00;;;3.70;;
68126;SDS011;54931;52.098;21.006;2023-02-18T10:32:02;12.50;;;2.70;;
68126;SDS011;54931;52.098;21.006;2023-02-18T10:34:46;11.40;;;2.60;;
68126;SDS011;54931;52.098;21.006;2023-02-18T10:37:43;12.40;;;3.60;;
68126;SDS011;54931;52.098;21.006;2023-02-18T10:40:24;13.40;;;3.30;;
68126;SDS011;54931;52.098;21.006;2023-02-18T10:51:39;14.80;;;3.30;;
68126;SDS011;54931;52.098;21.006;2023-02-18T10:54:14;12.90;;;3.30;;
68126;SDS011;54931;52.098;21.006;2023-02-18T10:56:57;7.40;;;2.40;;
68126;SDS011;54931;52.098;21.006;2023-02-18T10:59:31;9.40;;;2.70;;
68126;SDS011;54931;52.098;21.006;2023-02-18T11:02:13;14.30;;;3.30;;
68126;SDS011;54931;52.098;21.006;2023-02-18T11:04:45;14.40;;;3.60;;
68126;SDS011;54931;52.098;21.006;2023-02-18T11:07:26;9.40;;;2.80;;
68126;SDS011;54931;52.098;21.006;2023-02-18T11:10:14;13.00;;;3.40;;
68126;SDS011;54931;52.098;21.006;2023-02-18T11:12:55;13.50;;;3.50;;
68126;SDS011;54931;52.098;21.006;2023-02-18T11:15:28;18.80;;;3.70;;
68126;SDS011;54931;52.098;21.006;2023-02-18T11:18:59;16.80;;;3.20;;
68126;SDS011;54931;52.098;21.006;2023-02-18T11:21:31;14.50;;;3.20;;
68126;SDS011;54931;52.098;21.006;2023-02-18T11:24:08;15.20;;;3.10;;
68126;SDS011;54931;52.098;21.006;2023-02-18T11:26:42;13.50;;;3.20;;
68126;SDS011;54931;52.098;21.006;2023-02-18T11:29:21;8.90;;;2.80;;
68126;SDS011;54931;52.098;21.006;2023-02-18T11:31:54;12.70;;;2.80;;
68126;SDS011;54931;52.098;21.006;2023-02-18T11:34:28;13.20;;;3.10;;
68126;SDS011;54931;52.098;21.006;2023-02-18T11:37:17;11.90;;;3.20;;
68126;SDS011;54931;52.098;21.006;2023-02-18T11:42:23;12.10;;;2.50;;
68126;SDS011;54931;52.098;21.006;2023-02-18T11:44:58;10.00;;;3.00;;
68126;SDS011;54931;52.098;21.006;2023-02-18T11:47:36;13.10;;;3.10;;
68126;SDS011;54931;52.098;21.006;2023-02-18T11:52:40;15.00;;;3.50;;
68126;SDS011;54931;52.098;21.006;2023-02-18T11:58:02;9.10;;;2.60;;
68126;SDS011;54931;52.098;21.006;2023-02-18T12:00:36;10.80;;;2.90;;
68126;SDS011;54931;52.098;21.006;2023-02-18T12:03:37;14.80;;;3.20;;
68126;SDS011;54931;52.098;21.006;2023-02-18T12:06:30;10.40;;;3.30;;
68126;SDS011;54931;52.098;21.006;2023-02-18T12:09:25;13.30;;;3.90;;
68126;SDS011;54931;52.098;21.006;2023-02-18T12:12:02;15.70;;;3.10;;
68126;SDS011;54931;52.098;21.006;2023-02-18T12:14:35;13.00;;;3.40;;
68126;SDS011;54931;52.098;21.006;2023-02-18T12:20:36;9.20;;;3.00;;
68126;SDS011;54931;52.098;21.006;2023-02-18T12:35:51;12.50;;;3.20;;
68126;SDS011;54931;52.098;21.006;2023-02-18T12:38:52;12.60;;;3.20;;
68126;SDS011;54931;52.098;21.006;2023-02-18T12:47:42;12.80;;;2.90;;
68126;SDS011;54931;52.098;21.006;2023-02-18T12:50:39;17.00;;;3.10;;
68126;SDS011;54931;52.098;21.006;2023-02-18T13:02:18;10.90;;;3.30;;
68126;SDS011;54931;52.098;21.006;2023-02-18T13:05:41;14.90;;;3.30;;
68126;SDS011;54931;52.098;21.006;2023-02-18T13:08:26;11.90;;;2.90;;
68126;SDS011;54931;52.098;21.006;2023-02-18T13:14:17;13.70;;;3.60;;
68126;SDS011;54931;52.098;21.006;2023-02-18T13:17:15;16.40;;;3.30;;
68126;SDS011;54931;52.098;21.006;2023-02-18T13:19:51;11.20;;;3.10;;
68126;SDS011;54931;52.098;21.006;2023-02-18T13:22:26;11.80;;;3.40;;
68126;SDS011;54931;52.098;21.006;2023-02-18T13:24:57;10.80;;;3.10;;
68126;SDS011;54931;52.098;21.006;2023-02-18T13:27:39;12.70;;;3.30;;
68126;SDS011;54931;52.098;21.006;2023-02-18T13:30:26;11.00;;;3.40;;
68126;SDS011;54931;52.098;21.006;2023-02-18T13:39:21;11.90;;;3.00;;
68126;SDS011;54931;52.098;21.006;2023-02-18T13:42:10;14.60;;;4.00;;
68126;SDS011;54931;52.098;21.006;2023-02-18T13:47:47;10.40;;;3.40;;
68126;SDS011;54931;52.098;21.006;2023-02-18T13:55:54;16.40;;;3.60;;
68126;SDS011;54931;52.098;21.006;2023-02-18T13:58:38;12.30;;;3.10;;
68126;SDS011;54931;52.098;21.006;2023-02-18T14:06:31;12.00;;;3.00;;
68126;SDS011;54931;52.098;21.006;2023-02-18T14:11:54;12.70;;;3.60;;
68126;SDS011;54931;52.098;21.006;2023-02-18T14:22:33;10.70;;;3.30;;
68126;SDS011;54931;52.098;21.006;2023-02-18T14:27:42;9.20;;;2.80;;
68126;SDS011;54931;52.098;21.006;2023-02-18T14:32:43;13.70;;;4.00;;
68126;SDS011;54931;52.098;21.006;2023-02-18T14:40:52;13.10;;;4.40;;
68126;SDS011;54931;52.098;21.006;2023-02-18T14:49:51;14.80;;;4.60;;
68126;SDS011;54931;52.098;21.006;2023-02-18T14:55:40;11.40;;;3.80;;
68126;SDS011;54931;52.098;21.006;2023-02-18T14:58:29;11.30;;;3.10;;
68126;SDS011;54931;52.098;21.006;2023-02-18T15:01:23;12.30;;;3.30;;
68126;SDS011;54931;52.098;21.006;2023-02-18T15:04:00;9.30;;;2.90;;
68126;SDS011;54931;52.098;21.006;2023-02-18T15:06:30;9.40;;;2.90;;
68126;SDS011;54931;52.098;21.006;2023-02-18T15:09:01;9.70;;;3.30;;
68126;SDS011;54931;52.098;21.006;2023-02-18T15:11:58;10.10;;;3.10;;
68126;SDS011;54931;52.098;21.006;2023-02-18T15:14:41;7.70;;;3.10;;
68126;SDS011;54931;52.098;21.006;2023-02-18T15:17:16;7.70;;;2.40;;
68126;SDS011;54931;52.098;21.006;2023-02-18T15:19:51;6.60;;;2.60;;
68126;SDS011;54931;52.098;21.006;2023-02-18T15:22:24;9.30;;;3.70;;
68126;SDS011;54931;52.098;21.006;2023-02-18T15:24:58;8.30;;;2.50;;
68126;SDS011;54931;52.098;21.006;2023-02-18T15:27:32;12.40;;;3.50;;
68126;SDS011;54931;52.098;21.006;2023-02-18T15:30:17;13.60;;;4.80;;
68126;SDS011;54931;52.098;21.006;2023-02-18T15:32:59;13.10;;;5.20;;
68126;SDS011;54931;52.098;21.006;2023-02-18T15:35:30;18.00;;;5.20;;
68126;SDS011;54931;52.098;21.006;2023-02-18T15:38:00;16.10;;;5.40;;
68126;SDS011;54931;52.098;21.006;2023-02-18T15:40:33;14.70;;;5.60;;
68126;SDS011;54931;52.098;21.006;2023-02-18T15:43:05;21.40;;;6.50;;
68126;SDS011;54931;52.098;21.006;2023-02-18T15:45:39;23.60;;;9.10;;
68126;SDS011;54931;52.098;21.006;2023-02-18T15:48:42;27.60;;;9.70;;
68126;SDS011;54931;52.098;21.006;2023-02-18T15:51:18;33.10;;;9.40;;
68126;SDS011;54931;52.098;21.006;2023-02-18T15:53:51;13.50;;;6.50;;
68126;SDS011;54931;52.098;21.006;2023-02-18T15:56:43;24.90;;;8.30;;
68126;SDS011;54931;52.098;21.006;2023-02-18T16:01:52;19.50;;;6.80;;
68126;SDS011;54931;52.098;21.006;2023-02-18T16:04:27;16.70;;;6.80;;
68126;SDS011;54931;52.098;21.006;2023-02-18T16:07:03;22.10;;;9.80;;
68126;SDS011;54931;52.098;21.006;2023-02-18T16:09:45;56.40;;;22.90;;
68126;SDS011;54931;52.098;21.006;2023-02-18T16:12:30;62.30;;;29.60;;
68126;SDS011;54931;52.098;21.006;2023-02-18T16:14:59;117.40;;;53.00;;
68126;SDS011;54931;52.098;21.006;2023-02-18T16:17:28;49.90;;;23.20;;
68126;SDS011;54931;52.098;21.006;2023-02-18T16:20:13;21.40;;;8.80;;
68126;SDS011;54931;52.098;21.006;2023-02-18T16:22:49;17.30;;;5.70;;
68126;SDS011;54931;52.098;21.006;2023-02-18T16:25:25;14.40;;;5.40;;
68126;SDS011;54931;52.098;21.006;2023-02-18T16:30:50;23.90;;;6.50;;
68126;SDS011;54931;52.098;21.006;2023-02-18T16:33:18;18.50;;;6.00;;
68126;SDS011;54931;52.098;21.006;2023-02-18T16:35:47;21.70;;;6.40;;
68126;SDS011;54931;52.098;21.006;2023-02-18T16:38:17;15.50;;;5.10;;
68126;SDS011;54931;52.098;21.006;2023-02-18T16:40:52;16.30;;;5.50;;
68126;SDS011;54931;52.098;21.006;2023-02-18T16:43:24;13.80;;;5.20;;
68126;SDS011;54931;52.098;21.006;2023-02-18T16:45:56;18.00;;;4.60;;
68126;SDS011;54931;52.098;21.006;2023-02-18T16:48:29;12.60;;;5.50;;
68126;SDS011;54931;52.098;21.006;2023-02-18T16:51:23;12.80;;;3.90;;
68126;SDS011;54931;52.098;21.006;2023-02-18T16:53:55;14.20;;;5.40;;
68126;SDS011;54931;52.098;21.006;2023-02-18T16:56:26;13.20;;;4.60;;
68126;SDS011;54931;52.098;21.006;2023-02-18T16:58:58;14.70;;;5.20;;
68126;SDS011;54931;52.098;21.006;2023-02-18T17:01:29;16.00;;;5.10;;
68126;SDS011;54931;52.098;21.006;2023-02-18T17:04:00;14.40;;;4.60;;
68126;SDS011;54931;52.098;21.006;2023-02-18T17:06:30;14.40;;;4.60;;
68126;SDS011;54931;52.098;21.006;2023-02-18T17:08:58;17.50;;;4.80;;
68126;SDS011;54931;52.098;21.006;2023-02-18T17:11:33;15.80;;;4.60;;
68126;SDS011;54931;52.098;21.006;2023-02-18T17:14:02;17.00;;;4.60;;
68126;SDS011;54931;52.098;21.006;2023-02-18T17:16:31;12.00;;;5.40;;
68126;SDS011;54931;52.098;21.006;2023-02-18T17:19:00;13.60;;;5.40;;
68126;SDS011;54931;52.098;21.006;2023-02-18T17:21:28;19.90;;;6.30;;
68126;SDS011;54931;52.098;21.006;2023-02-18T17:23:56;18.70;;;7.50;;
68126;SDS011;54931;52.098;21.006;2023-02-18T17:26:27;28.00;;;10.30;;
68126;SDS011;54931;52.098;21.006;2023-02-18T17:28:58;35.20;;;12.90;;
68126;SDS011;54931;52.098;21.006;2023-02-18T17:31:30;27.00;;;10.40;;
68126;SDS011;54931;52.098;21.006;2023-02-18T17:34:05;27.30;;;12.50;;